sensor_id;sensor_type;location;lat;lon;timestamp;P1;durP1;ratioP1;P2;durP2;ratioP2
16416;SDS011;8317;52.186;5.688;2023-07-29T00:00:41;5.15;;;2.70;;
16416;SDS011;8317;52.186;5.688;2023-07-29T00:03:08;4.15;;;2.72;;
16416;SDS011;8317;52.186;5.688;2023-07-29T00:05:35;2.97;;;2.38;;
16416;SDS011;8317;52.186;5.688;2023-07-29T00:08:02;4.35;;;2.78;;
16416;SDS011;8317;52.186;5.688;2023-07-29T00:10:32;4.40;;;2.83;;
16416;SDS011;8317;52.186;5.688;2023-07-29T00:13:01;4.35;;;3.00;;
16416;SDS011;8317;52.186;5.688;2023-07-29T00:15:29;4.32;;;2.83;;
16416;SDS011;8317;52.186;5.688;2023-07-29T00:17:55;3.15;;;2.58;;
16416;SDS011;8317;52.186;5.688;2023-07-29T00:20:22;3.88;;;2.72;;
16416;SDS011;8317;52.186;5.688;2023-07-29T00:22:49;3.08;;;2.50;;
16416;SDS011;8317;52.186;5.688;2023-07-29T00:25:18;4.05;;;2.35;;
16416;SDS011;8317;52.186;5.688;2023-07-29T00:27:47;4.55;;;2.67;;
16416;SDS011;8317;52.186;5.688;2023-07-29T00:30:14;3.17;;;2.22;;
16416;SDS011;8317;52.186;5.688;2023-07-29T00:32:41;2.75;;;2.47;;
16416;SDS011;8317;52.186;5.688;2023-07-29T00:35:08;2.50;;;2.13;;
16416;SDS011;8317;52.186;5.688;2023-07-29T00:37:35;2.95;;;2.53;;
16416;SDS011;8317;52.186;5.688;2023-07-29T00:40:03;3.45;;;2.88;;
16416;SDS011;8317;52.186;5.688;2023-07-29T00:42:30;2.38;;;2.08;;
16416;SDS011;8317;52.186;5.688;2023-07-29T00:44:58;2.97;;;2.15;;
16416;SDS011;8317;52.186;5.688;2023-07-29T00:47:25;3.08;;;2.20;;
16416;SDS011;8317;52.186;5.688;2023-07-29T00:49:52;2.53;;;2.33;;
16416;SDS011;8317;52.186;5.688;2023-07-29T00:52:19;3.55;;;2.65;;
16416;SDS011;8317;52.186;5.688;2023-07-29T00:54:46;2.90;;;2.13;;
16416;SDS011;8317;52.186;5.688;2023-07-29T00:57:13;2.60;;;2.38;;
16416;SDS011;8317;52.186;5.688;2023-07-29T00:59:41;3.72;;;2.75;;
16416;SDS011;8317;52.186;5.688;2023-07-29T01:02:09;3.70;;;2.13;;
16416;SDS011;8317;52.186;5.688;2023-07-29T01:04:36;2.60;;;1.98;;
16416;SDS011;8317;52.186;5.688;2023-07-29T01:07:06;2.38;;;2.17;;
16416;SDS011;8317;52.186;5.688;2023-07-29T01:09:41;2.88;;;1.77;;
16416;SDS011;8317;52.186;5.688;2023-07-29T01:12:16;8.68;;;2.60;;
16416;SDS011;8317;52.186;5.688;2023-07-29T01:14:51;4.25;;;2.30;;
16416;SDS011;8317;52.186;5.688;2023-07-29T01:17:27;2.40;;;2.20;;
16416;SDS011;8317;52.186;5.688;2023-07-29T01:20:00;1.92;;;1.63;;
16416;SDS011;8317;52.186;5.688;2023-07-29T01:22:30;3.80;;;2.13;;
16416;SDS011;8317;52.186;5.688;2023-07-29T01:25:00;7.57;;;2.60;;
16416;SDS011;8317;52.186;5.688;2023-07-29T01:27:27;6.18;;;2.40;;
16416;SDS011;8317;52.186;5.688;2023-07-29T01:29:55;3.28;;;2.38;;
16416;SDS011;8317;52.186;5.688;2023-07-29T01:32:25;3.65;;;2.63;;
16416;SDS011;8317;52.186;5.688;2023-07-29T01:34:56;2.60;;;2.10;;
16416;SDS011;8317;52.186;5.688;2023-07-29T01:37:30;2.45;;;2.05;;
16416;SDS011;8317;52.186;5.688;2023-07-29T01:40:01;2.65;;;1.85;;
16416;SDS011;8317;52.186;5.688;2023-07-29T01:42:29;5.18;;;2.30;;
16416;SDS011;8317;52.186;5.688;2023-07-29T01:44:57;4.15;;;2.42;;
16416;SDS011;8317;52.186;5.688;2023-07-29T01:47:24;3.90;;;2.38;;
16416;SDS011;8317;52.186;5.688;2023-07-29T01:49:51;4.53;;;2.05;;
16416;SDS011;8317;52.186;5.688;2023-07-29T01:52:18;2.97;;;1.90;;
16416;SDS011;8317;52.186;5.688;2023-07-29T01:54:45;3.33;;;2.35;;
16416;SDS011;8317;52.186;5.688;2023-07-29T01:57:13;3.17;;;1.90;;
16416;SDS011;8317;52.186;5.688;2023-07-29T01:59:40;4.22;;;2.63;;
16416;SDS011;8317;52.186;5.688;2023-07-29T02:02:06;2.40;;;2.05;;
16416;SDS011;8317;52.186;5.688;2023-07-29T02:04:33;5.07;;;2.05;;
16416;SDS011;8317;52.186;5.688;2023-07-29T02:07:00;2.72;;;2.40;;
16416;SDS011;8317;52.186;5.688;2023-07-29T02:09:27;4.35;;;2.33;;
16416;SDS011;8317;52.186;5.688;2023-07-29T02:11:54;2.22;;;2.00;;
16416;SDS011;8317;52.186;5.688;2023-07-29T02:14:22;2.45;;;2.08;;
16416;SDS011;8317;52.186;5.688;2023-07-29T02:16:49;3.47;;;2.17;;
16416;SDS011;8317;52.186;5.688;2023-07-29T02:19:16;2.65;;;1.92;;
16416;SDS011;8317;52.186;5.688;2023-07-29T02:21:43;3.20;;;1.65;;
16416;SDS011;8317;52.186;5.688;2023-07-29T02:24:10;4.13;;;2.50;;
16416;SDS011;8317;52.186;5.688;2023-07-29T02:26:37;5.18;;;2.55;;
16416;SDS011;8317;52.186;5.688;2023-07-29T02:29:04;3.63;;;2.17;;
16416;SDS011;8317;52.186;5.688;2023-07-29T02:31:32;3.83;;;2.08;;
16416;SDS011;8317;52.186;5.688;2023-07-29T02:34:01;5.25;;;3.28;;
16416;SDS011;8317;52.186;5.688;2023-07-29T02:36:29;4.45;;;2.92;;
16416;SDS011;8317;52.186;5.688;2023-07-29T02:38:56;3.60;;;2.30;;
16416;SDS011;8317;52.186;5.688;2023-07-29T02:41:23;3.03;;;2.10;;
16416;SDS011;8317;52.186;5.688;2023-07-29T02:43:50;5.68;;;2.22;;
16416;SDS011;8317;52.186;5.688;2023-07-29T02:46:17;9.90;;;2.40;;
16416;SDS011;8317;52.186;5.688;2023-07-29T02:48:45;4.10;;;2.92;;
16416;SDS011;8317;52.186;5.688;2023-07-29T02:51:12;3.17;;;2.60;;
16416;SDS011;8317;52.186;5.688;2023-07-29T02:53:39;6.65;;;3.13;;
16416;SDS011;8317;52.186;5.688;2023-07-29T02:56:06;5.63;;;4.07;;
16416;SDS011;8317;52.186;5.688;2023-07-29T02:58:34;6.68;;;4.28;;
16416;SDS011;8317;52.186;5.688;2023-07-29T03:01:01;4.15;;;3.38;;
16416;SDS011;8317;52.186;5.688;2023-07-29T03:03:28;4.63;;;2.85;;
16416;SDS011;8317;52.186;5.688;2023-07-29T03:05:58;5.28;;;3.53;;
16416;SDS011;8317;52.186;5.688;2023-07-29T03:08:26;4.20;;;2.92;;
16416;SDS011;8317;52.186;5.688;2023-07-29T03:10:53;5.90;;;3.08;;
16416;SDS011;8317;52.186;5.688;2023-07-29T03:13:20;2.72;;;2.42;;
16416;SDS011;8317;52.186;5.688;2023-07-29T03:15:47;4.25;;;2.42;;
16416;SDS011;8317;52.186;5.688;2023-07-29T03:18:14;4.15;;;2.88;;
16416;SDS011;8317;52.186;5.688;2023-07-29T03:20:41;5.57;;;3.17;;
16416;SDS011;8317;52.186;5.688;2023-07-29T03:23:09;4.78;;;3.45;;
16416;SDS011;8317;52.186;5.688;2023-07-29T03:25:36;7.82;;;3.40;;
16416;SDS011;8317;52.186;5.688;2023-07-29T03:28:03;8.50;;;3.72;;
16416;SDS011;8317;52.186;5.688;2023-07-29T03:30:30;9.10;;;3.65;;
16416;SDS011;8317;52.186;5.688;2023-07-29T03:32:57;9.90;;;3.90;;
16416;SDS011;8317;52.186;5.688;2023-07-29T03:35:24;10.60;;;3.75;;
16416;SDS011;8317;52.186;5.688;2023-07-29T03:37:51;6.47;;;3.13;;
16416;SDS011;8317;52.186;5.688;2023-07-29T03:40:19;8.10;;;3.65;;
16416;SDS011;8317;52.186;5.688;2023-07-29T03:42:46;5.90;;;3.58;;
16416;SDS011;8317;52.186;5.688;2023-07-29T03:45:13;4.40;;;2.88;;
16416;SDS011;8317;52.186;5.688;2023-07-29T03:47:40;12.82;;;4.13;;
16416;SDS011;8317;52.186;5.688;2023-07-29T03:50:07;4.25;;;2.95;;
16416;SDS011;8317;52.186;5.688;2023-07-29T03:52:34;6.85;;;3.60;;
16416;SDS011;8317;52.186;5.688;2023-07-29T03:55:01;5.60;;;3.20;;
16416;SDS011;8317;52.186;5.688;2023-07-29T03:57:30;4.47;;;3.08;;
16416;SDS011;8317;52.186;5.688;2023-07-29T03:59:56;5.35;;;3.72;;
16416;SDS011;8317;52.186;5.688;2023-07-29T04:02:23;8.68;;;3.45;;
16416;SDS011;8317;52.186;5.688;2023-07-29T04:04:50;6.70;;;3.80;;
16416;SDS011;8317;52.186;5.688;2023-07-29T04:07:17;8.07;;;3.53;;
16416;SDS011;8317;52.186;5.688;2023-07-29T04:09:44;7.07;;;3.50;;
16416;SDS011;8317;52.186;5.688;2023-07-29T04:12:11;4.45;;;3.17;;
16416;SDS011;8317;52.186;5.688;2023-07-29T04:14:39;5.90;;;3.83;;
16416;SDS011;8317;52.186;5.688;2023-07-29T04:17:06;6.60;;;3.85;;
16416;SDS011;8317;52.186;5.688;2023-07-29T04:19:34;4.90;;;2.92;;
16416;SDS011;8317;52.186;5.688;2023-07-29T04:22:00;6.60;;;3.75;;
16416;SDS011;8317;52.186;5.688;2023-07-29T04:24:27;4.05;;;2.88;;
16416;SDS011;8317;52.186;5.688;2023-07-29T04:26:54;5.10;;;2.97;;
16416;SDS011;8317;52.186;5.688;2023-07-29T04:29:21;7.03;;;3.25;;
16416;SDS011;8317;52.186;5.688;2023-07-29T04:31:50;6.70;;;3.67;;
16416;SDS011;8317;52.186;5.688;2023-07-29T04:34:17;5.22;;;3.03;;
16416;SDS011;8317;52.186;5.688;2023-07-29T04:36:44;3.95;;;2.60;;
16416;SDS011;8317;52.186;5.688;2023-07-29T04:39:11;4.40;;;3.10;;
16416;SDS011;8317;52.186;5.688;2023-07-29T04:41:38;11.25;;;3.67;;
16416;SDS011;8317;52.186;5.688;2023-07-29T04:44:05;7.15;;;4.45;;
16416;SDS011;8317;52.186;5.688;2023-07-29T04:46:32;9.18;;;2.85;;
16416;SDS011;8317;52.186;5.688;2023-07-29T04:49:00;5.35;;;3.22;;
16416;SDS011;8317;52.186;5.688;2023-07-29T04:51:28;3.22;;;2.60;;
16416;SDS011;8317;52.186;5.688;2023-07-29T04:53:56;5.85;;;3.20;;
16416;SDS011;8317;52.186;5.688;2023-07-29T04:56:23;5.25;;;3.05;;
16416;SDS011;8317;52.186;5.688;2023-07-29T04:58:50;3.65;;;2.42;;
16416;SDS011;8317;52.186;5.688;2023-07-29T05:01:17;6.72;;;2.58;;
16416;SDS011;8317;52.186;5.688;2023-07-29T05:03:44;4.03;;;2.67;;
16416;SDS011;8317;52.186;5.688;2023-07-29T05:06:12;6.35;;;2.80;;
16416;SDS011;8317;52.186;5.688;2023-07-29T05:08:39;4.32;;;2.50;;
16416;SDS011;8317;52.186;5.688;2023-07-29T05:11:06;2.85;;;2.38;;
16416;SDS011;8317;52.186;5.688;2023-07-29T05:13:33;8.02;;;2.85;;
16416;SDS011;8317;52.186;5.688;2023-07-29T05:16:00;7.47;;;2.45;;
16416;SDS011;8317;52.186;5.688;2023-07-29T05:18:27;4.22;;;2.42;;
16416;SDS011;8317;52.186;5.688;2023-07-29T05:20:54;6.07;;;3.17;;
16416;SDS011;8317;52.186;5.688;2023-07-29T05:23:22;6.10;;;3.03;;
16416;SDS011;8317;52.186;5.688;2023-07-29T05:25:49;4.57;;;2.50;;
16416;SDS011;8317;52.186;5.688;2023-07-29T05:28:16;3.60;;;2.60;;
16416;SDS011;8317;52.186;5.688;2023-07-29T05:30:43;3.70;;;2.38;;
16416;SDS011;8317;52.186;5.688;2023-07-29T05:33:10;8.38;;;2.55;;
16416;SDS011;8317;52.186;5.688;2023-07-29T05:35:37;7.15;;;3.25;;
16416;SDS011;8317;52.186;5.688;2023-07-29T05:38:04;3.03;;;2.47;;
16416;SDS011;8317;52.186;5.688;2023-07-29T05:40:34;3.83;;;2.40;;
16416;SDS011;8317;52.186;5.688;2023-07-29T05:43:01;3.70;;;2.50;;
16416;SDS011;8317;52.186;5.688;2023-07-29T05:45:29;4.00;;;2.22;;
16416;SDS011;8317;52.186;5.688;2023-07-29T05:47:56;6.40;;;2.97;;
16416;SDS011;8317;52.186;5.688;2023-07-29T05:50:23;3.72;;;2.38;;
16416;SDS011;8317;52.186;5.688;2023-07-29T05:52:50;5.60;;;3.17;;
16416;SDS011;8317;52.186;5.688;2023-07-29T05:55:17;4.65;;;1.88;;
16416;SDS011;8317;52.186;5.688;2023-07-29T05:57:45;4.45;;;2.78;;
16416;SDS011;8317;52.186;5.688;2023-07-29T06:00:12;5.97;;;2.40;;
16416;SDS011;8317;52.186;5.688;2023-07-29T06:02:39;2.97;;;2.47;;
16416;SDS011;8317;52.186;5.688;2023-07-29T06:05:06;5.95;;;3.20;;
16416;SDS011;8317;52.186;5.688;2023-07-29T06:07:34;5.70;;;2.70;;
16416;SDS011;8317;52.186;5.688;2023-07-29T06:10:00;3.10;;;2.47;;
16416;SDS011;8317;52.186;5.688;2023-07-29T06:12:27;5.05;;;2.75;;
16416;SDS011;8317;52.186;5.688;2023-07-29T06:14:55;3.47;;;2.63;;
16416;SDS011;8317;52.186;5.688;2023-07-29T06:17:22;4.88;;;2.67;;
16416;SDS011;8317;52.186;5.688;2023-07-29T06:19:49;3.47;;;2.25;;
16416;SDS011;8317;52.186;5.688;2023-07-29T06:22:16;8.27;;;3.15;;
16416;SDS011;8317;52.186;5.688;2023-07-29T06:24:43;9.05;;;3.67;;
16416;SDS011;8317;52.186;5.688;2023-07-29T06:27:10;4.57;;;3.05;;
16416;SDS011;8317;52.186;5.688;2023-07-29T06:29:37;6.85;;;2.72;;
16416;SDS011;8317;52.186;5.688;2023-07-29T06:32:05;4.53;;;2.97;;
16416;SDS011;8317;52.186;5.688;2023-07-29T06:34:33;5.55;;;2.80;;
16416;SDS011;8317;52.186;5.688;2023-07-29T06:37:00;4.82;;;3.33;;
16416;SDS011;8317;52.186;5.688;2023-07-29T06:39:27;9.05;;;3.35;;
16416;SDS011;8317;52.186;5.688;2023-07-29T06:41:53;5.93;;;3.38;;
16416;SDS011;8317;52.186;5.688;2023-07-29T06:44:20;7.03;;;3.22;;
16416;SDS011;8317;52.186;5.688;2023-07-29T06:46:47;5.65;;;3.13;;
16416;SDS011;8317;52.186;5.688;2023-07-29T06:49:15;6.80;;;3.30;;
16416;SDS011;8317;52.186;5.688;2023-07-29T06:51:42;5.78;;;3.40;;
16416;SDS011;8317;52.186;5.688;2023-07-29T06:54:09;6.15;;;3.22;;
16416;SDS011;8317;52.186;5.688;2023-07-29T06:56:36;5.47;;;2.80;;
16416;SDS011;8317;52.186;5.688;2023-07-29T06:59:03;5.25;;;3.25;;
16416;SDS011;8317;52.186;5.688;2023-07-29T07:01:30;9.00;;;4.38;;
16416;SDS011;8317;52.186;5.688;2023-07-29T07:03:57;4.88;;;3.03;;
16416;SDS011;8317;52.186;5.688;2023-07-29T07:06:25;6.30;;;3.22;;
16416;SDS011;8317;52.186;5.688;2023-07-29T07:08:52;7.05;;;4.00;;
16416;SDS011;8317;52.186;5.688;2023-07-29T07:11:19;4.63;;;3.38;;
16416;SDS011;8317;52.186;5.688;2023-07-29T07:13:46;5.00;;;3.20;;
16416;SDS011;8317;52.186;5.688;2023-07-29T07:16:12;10.43;;;3.80;;
16416;SDS011;8317;52.186;5.688;2023-07-29T07:18:39;10.27;;;3.20;;
16416;SDS011;8317;52.186;5.688;2023-07-29T07:21:06;5.72;;;3.40;;
16416;SDS011;8317;52.186;5.688;2023-07-29T07:23:34;5.60;;;3.00;;
16416;SDS011;8317;52.186;5.688;2023-07-29T07:26:01;6.65;;;3.78;;
16416;SDS011;8317;52.186;5.688;2023-07-29T07:28:28;6.32;;;4.28;;
16416;SDS011;8317;52.186;5.688;2023-07-29T07:30:55;5.57;;;4.30;;
16416;SDS011;8317;52.186;5.688;2023-07-29T07:33:23;6.50;;;4.40;;
16416;SDS011;8317;52.186;5.688;2023-07-29T07:35:50;10.27;;;4.70;;
16416;SDS011;8317;52.186;5.688;2023-07-29T07:38:17;10.25;;;5.47;;
16416;SDS011;8317;52.186;5.688;2023-07-29T07:40:53;12.73;;;5.43;;
16416;SDS011;8317;52.186;5.688;2023-07-29T07:43:21;12.25;;;5.90;;
16416;SDS011;8317;52.186;5.688;2023-07-29T07:45:48;6.50;;;5.22;;
16416;SDS011;8317;52.186;5.688;2023-07-29T07:48:14;8.05;;;5.57;;
16416;SDS011;8317;52.186;5.688;2023-07-29T07:50:42;8.63;;;5.40;;
16416;SDS011;8317;52.186;5.688;2023-07-29T07:53:09;7.80;;;4.60;;
16416;SDS011;8317;52.186;5.688;2023-07-29T07:55:36;8.20;;;4.57;;
16416;SDS011;8317;52.186;5.688;2023-07-29T07:58:04;7.13;;;4.85;;
16416;SDS011;8317;52.186;5.688;2023-07-29T08:00:31;11.07;;;5.53;;
16416;SDS011;8317;52.186;5.688;2023-07-29T08:02:58;10.40;;;4.90;;
16416;SDS011;8317;52.186;5.688;2023-07-29T08:05:24;6.80;;;5.40;;
16416;SDS011;8317;52.186;5.688;2023-07-29T08:07:51;6.55;;;4.85;;
16416;SDS011;8317;52.186;5.688;2023-07-29T08:10:18;11.07;;;5.57;;
16416;SDS011;8317;52.186;5.688;2023-07-29T08:12:45;7.75;;;5.68;;
16416;SDS011;8317;52.186;5.688;2023-07-29T08:15:14;7.97;;;4.57;;
16416;SDS011;8317;52.186;5.688;2023-07-29T08:17:41;7.07;;;4.80;;
16416;SDS011;8317;52.186;5.688;2023-07-29T08:20:08;10.65;;;5.25;;
16416;SDS011;8317;52.186;5.688;2023-07-29T08:22:35;6.78;;;4.72;;
16416;SDS011;8317;52.186;5.688;2023-07-29T08:25:02;6.97;;;4.63;;
16416;SDS011;8317;52.186;5.688;2023-07-29T08:27:29;6.88;;;4.57;;
16416;SDS011;8317;52.186;5.688;2023-07-29T08:29:56;9.60;;;4.82;;
16416;SDS011;8317;52.186;5.688;2023-07-29T08:32:24;5.63;;;5.10;;
16416;SDS011;8317;52.186;5.688;2023-07-29T08:34:51;7.68;;;5.20;;
16416;SDS011;8317;52.186;5.688;2023-07-29T08:37:18;9.02;;;4.53;;
16416;SDS011;8317;52.186;5.688;2023-07-29T08:39:45;5.65;;;4.60;;
16416;SDS011;8317;52.186;5.688;2023-07-29T08:42:12;5.60;;;4.60;;
16416;SDS011;8317;52.186;5.688;2023-07-29T08:44:41;5.03;;;4.50;;
16416;SDS011;8317;52.186;5.688;2023-07-29T08:47:09;4.47;;;4.00;;
16416;SDS011;8317;52.186;5.688;2023-07-29T08:49:37;5.40;;;3.95;;
16416;SDS011;8317;52.186;5.688;2023-07-29T08:52:05;6.70;;;4.18;;
16416;SDS011;8317;52.186;5.688;2023-07-29T08:54:33;5.07;;;4.53;;
16416;SDS011;8317;52.186;5.688;2023-07-29T08:57:00;7.15;;;4.32;;
16416;SDS011;8317;52.186;5.688;2023-07-29T08:59:28;4.95;;;3.88;;
16416;SDS011;8317;52.186;5.688;2023-07-29T09:01:55;5.78;;;3.42;;
16416;SDS011;8317;52.186;5.688;2023-07-29T09:04:23;4.07;;;3.67;;
16416;SDS011;8317;52.186;5.688;2023-07-29T09:06:52;6.00;;;3.90;;
16416;SDS011;8317;52.186;5.688;2023-07-29T09:09:22;6.38;;;4.45;;
16416;SDS011;8317;52.186;5.688;2023-07-29T09:11:48;4.35;;;3.92;;
16416;SDS011;8317;52.186;5.688;2023-07-29T09:14:16;5.90;;;3.75;;
16416;SDS011;8317;52.186;5.688;2023-07-29T09:16:43;5.18;;;4.18;;
16416;SDS011;8317;52.186;5.688;2023-07-29T09:19:10;4.10;;;3.35;;
16416;SDS011;8317;52.186;5.688;2023-07-29T09:21:38;3.50;;;3.20;;
16416;SDS011;8317;52.186;5.688;2023-07-29T09:24:06;3.72;;;3.00;;
16416;SDS011;8317;52.186;5.688;2023-07-29T09:26:34;3.15;;;2.85;;
16416;SDS011;8317;52.186;5.688;2023-07-29T09:29:01;3.67;;;2.97;;
16416;SDS011;8317;52.186;5.688;2023-07-29T09:31:28;2.83;;;2.60;;
16416;SDS011;8317;52.186;5.688;2023-07-29T09:33:55;3.28;;;2.90;;
16416;SDS011;8317;52.186;5.688;2023-07-29T09:36:24;4.65;;;2.80;;
16416;SDS011;8317;52.186;5.688;2023-07-29T09:38:53;5.50;;;3.70;;
16416;SDS011;8317;52.186;5.688;2023-07-29T09:41:23;4.45;;;3.05;;
16416;SDS011;8317;52.186;5.688;2023-07-29T09:43:54;4.28;;;3.63;;
16416;SDS011;8317;52.186;5.688;2023-07-29T09:46:23;6.93;;;3.60;;
16416;SDS011;8317;52.186;5.688;2023-07-29T09:48:53;6.47;;;3.40;;
16416;SDS011;8317;52.186;5.688;2023-07-29T09:51:22;5.53;;;3.17;;
16416;SDS011;8317;52.186;5.688;2023-07-29T09:53:50;3.38;;;3.08;;
16416;SDS011;8317;52.186;5.688;2023-07-29T09:56:17;6.57;;;3.67;;
16416;SDS011;8317;52.186;5.688;2023-07-29T09:58:51;5.57;;;3.30;;
16416;SDS011;8317;52.186;5.688;2023-07-29T10:01:18;4.13;;;3.72;;
16416;SDS011;8317;52.186;5.688;2023-07-29T10:03:45;4.32;;;3.92;;
16416;SDS011;8317;52.186;5.688;2023-07-29T10:06:13;6.90;;;3.65;;
16416;SDS011;8317;52.186;5.688;2023-07-29T10:08:42;3.50;;;3.20;;
16416;SDS011;8317;52.186;5.688;2023-07-29T10:11:10;5.35;;;4.03;;
16416;SDS011;8317;52.186;5.688;2023-07-29T10:13:37;14.23;;;4.20;;
16416;SDS011;8317;52.186;5.688;2023-07-29T10:16:06;4.00;;;3.60;;
16416;SDS011;8317;52.186;5.688;2023-07-29T10:18:33;5.55;;;4.05;;
16416;SDS011;8317;52.186;5.688;2023-07-29T10:21:01;10.02;;;4.00;;
16416;SDS011;8317;52.186;5.688;2023-07-29T10:23:31;5.82;;;4.40;;
16416;SDS011;8317;52.186;5.688;2023-07-29T10:26:09;7.45;;;4.57;;
16416;SDS011;8317;52.186;5.688;2023-07-29T10:28:39;5.95;;;4.60;;
16416;SDS011;8317;52.186;5.688;2023-07-29T10:31:08;6.32;;;4.57;;
16416;SDS011;8317;52.186;5.688;2023-07-29T10:33:36;11.70;;;5.20;;
16416;SDS011;8317;52.186;5.688;2023-07-29T10:36:04;6.07;;;5.03;;
16416;SDS011;8317;52.186;5.688;2023-07-29T10:38:31;5.97;;;4.88;;
16416;SDS011;8317;52.186;5.688;2023-07-29T10:40:59;7.00;;;4.25;;
16416;SDS011;8317;52.186;5.688;2023-07-29T10:43:26;7.80;;;4.88;;
16416;SDS011;8317;52.186;5.688;2023-07-29T10:45:57;8.60;;;5.78;;
16416;SDS011;8317;52.186;5.688;2023-07-29T10:48:43;5.25;;;4.75;;
16416;SDS011;8317;52.186;5.688;2023-07-29T10:51:23;8.10;;;6.05;;
16416;SDS011;8317;52.186;5.688;2023-07-29T10:53:52;8.68;;;5.10;;
16416;SDS011;8317;52.186;5.688;2023-07-29T10:56:24;6.47;;;5.43;;
16416;SDS011;8317;52.186;5.688;2023-07-29T10:58:56;7.05;;;5.90;;
16416;SDS011;8317;52.186;5.688;2023-07-29T11:01:26;6.45;;;5.80;;
16416;SDS011;8317;52.186;5.688;2023-07-29T11:09:57;6.18;;;5.50;;
16416;SDS011;8317;52.186;5.688;2023-07-29T11:12:39;9.45;;;5.70;;
16416;SDS011;8317;52.186;5.688;2023-07-29T11:15:15;7.25;;;5.50;;
16416;SDS011;8317;52.186;5.688;2023-07-29T11:17:47;6.70;;;5.85;;
16416;SDS011;8317;52.186;5.688;2023-07-29T11:20:17;8.05;;;5.13;;
16416;SDS011;8317;52.186;5.688;2023-07-29T11:22:44;7.28;;;5.75;;
16416;SDS011;8317;52.186;5.688;2023-07-29T11:25:12;6.50;;;4.97;;
16416;SDS011;8317;52.186;5.688;2023-07-29T11:27:41;5.85;;;5.03;;
16416;SDS011;8317;52.186;5.688;2023-07-29T11:30:08;5.88;;;4.97;;
16416;SDS011;8317;52.186;5.688;2023-07-29T11:32:37;6.43;;;4.82;;
16416;SDS011;8317;52.186;5.688;2023-07-29T11:35:05;7.28;;;4.88;;
16416;SDS011;8317;52.186;5.688;2023-07-29T11:37:34;8.90;;;5.78;;
16416;SDS011;8317;52.186;5.688;2023-07-29T11:40:02;8.52;;;4.75;;
16416;SDS011;8317;52.186;5.688;2023-07-29T11:42:31;6.03;;;4.43;;
16416;SDS011;8317;52.186;5.688;2023-07-29T11:44:58;8.40;;;4.90;;
16416;SDS011;8317;52.186;5.688;2023-07-29T11:47:26;4.75;;;3.50;;
16416;SDS011;8317;52.186;5.688;2023-07-29T11:49:53;3.63;;;3.28;;
16416;SDS011;8317;52.186;5.688;2023-07-29T11:52:20;3.03;;;2.60;;
16416;SDS011;8317;52.186;5.688;2023-07-29T11:54:49;5.97;;;2.33;;
16416;SDS011;8317;52.186;5.688;2023-07-29T11:57:16;3.08;;;2.33;;
16416;SDS011;8317;52.186;5.688;2023-07-29T11:59:44;2.83;;;2.58;;
16416;SDS011;8317;52.186;5.688;2023-07-29T12:02:12;3.90;;;2.45;;
16416;SDS011;8317;52.186;5.688;2023-07-29T12:04:41;3.47;;;2.08;;
16416;SDS011;8317;52.186;5.688;2023-07-29T12:07:10;2.75;;;2.22;;
16416;SDS011;8317;52.186;5.688;2023-07-29T12:09:38;3.28;;;2.40;;
16416;SDS011;8317;52.186;5.688;2023-07-29T12:12:08;2.75;;;2.50;;
16416;SDS011;8317;52.186;5.688;2023-07-29T12:14:35;3.05;;;2.75;;
16416;SDS011;8317;52.186;5.688;2023-07-29T12:17:02;3.88;;;2.65;;
16416;SDS011;8317;52.186;5.688;2023-07-29T12:19:31;9.05;;;3.40;;
16416;SDS011;8317;52.186;5.688;2023-07-29T12:22:00;3.83;;;2.72;;
16416;SDS011;8317;52.186;5.688;2023-07-29T12:24:27;4.00;;;3.50;;
16416;SDS011;8317;52.186;5.688;2023-07-29T12:26:55;5.57;;;3.78;;
16416;SDS011;8317;52.186;5.688;2023-07-29T12:29:23;4.47;;;3.35;;
16416;SDS011;8317;52.186;5.688;2023-07-29T12:31:56;3.78;;;3.00;;
16416;SDS011;8317;52.186;5.688;2023-07-29T12:34:25;3.70;;;2.53;;
16416;SDS011;8317;52.186;5.688;2023-07-29T12:36:54;4.03;;;2.40;;
16416;SDS011;8317;52.186;5.688;2023-07-29T12:39:22;3.33;;;3.03;;
16416;SDS011;8317;52.186;5.688;2023-07-29T12:41:50;2.95;;;2.60;;
16416;SDS011;8317;52.186;5.688;2023-07-29T12:44:18;3.42;;;2.60;;
16416;SDS011;8317;52.186;5.688;2023-07-29T12:46:46;3.30;;;2.33;;
16416;SDS011;8317;52.186;5.688;2023-07-29T12:49:13;2.80;;;2.15;;
16416;SDS011;8317;52.186;5.688;2023-07-29T12:51:40;3.05;;;2.08;;
16416;SDS011;8317;52.186;5.688;2023-07-29T12:54:07;2.60;;;2.03;;
16416;SDS011;8317;52.186;5.688;2023-07-29T12:56:34;2.75;;;2.15;;
16416;SDS011;8317;52.186;5.688;2023-07-29T12:59:01;5.03;;;2.05;;
16416;SDS011;8317;52.186;5.688;2023-07-29T13:01:29;2.72;;;2.30;;
16416;SDS011;8317;52.186;5.688;2023-07-29T13:03:57;2.75;;;1.90;;
16416;SDS011;8317;52.186;5.688;2023-07-29T13:06:24;3.45;;;1.60;;
16416;SDS011;8317;52.186;5.688;2023-07-29T13:08:51;3.20;;;1.88;;
16416;SDS011;8317;52.186;5.688;2023-07-29T13:11:17;2.47;;;2.00;;
16416;SDS011;8317;52.186;5.688;2023-07-29T13:13:44;1.88;;;1.73;;
16416;SDS011;8317;52.186;5.688;2023-07-29T13:16:11;1.98;;;1.75;;
16416;SDS011;8317;52.186;5.688;2023-07-29T13:18:38;1.92;;;1.52;;
16416;SDS011;8317;52.186;5.688;2023-07-29T13:21:07;3.85;;;1.73;;
16416;SDS011;8317;52.186;5.688;2023-07-29T13:23:34;1.58;;;1.48;;
16416;SDS011;8317;52.186;5.688;2023-07-29T13:26:01;1.98;;;1.60;;
16416;SDS011;8317;52.186;5.688;2023-07-29T13:28:27;1.45;;;1.35;;
16416;SDS011;8317;52.186;5.688;2023-07-29T13:30:54;4.03;;;1.50;;
16416;SDS011;8317;52.186;5.688;2023-07-29T13:33:21;1.25;;;1.15;;
16416;SDS011;8317;52.186;5.688;2023-07-29T13:35:48;1.60;;;1.50;;
16416;SDS011;8317;52.186;5.688;2023-07-29T13:38:17;1.45;;;1.23;;
16416;SDS011;8317;52.186;5.688;2023-07-29T13:40:45;2.28;;;1.70;;
16416;SDS011;8317;52.186;5.688;2023-07-29T13:43:12;1.92;;;1.60;;
16416;SDS011;8317;52.186;5.688;2023-07-29T13:45:39;3.10;;;2.00;;
16416;SDS011;8317;52.186;5.688;2023-07-29T13:48:06;1.58;;;1.48;;
16416;SDS011;8317;52.186;5.688;2023-07-29T13:50:32;1.73;;;1.63;;
16416;SDS011;8317;52.186;5.688;2023-07-29T13:52:59;4.78;;;1.90;;
16416;SDS011;8317;52.186;5.688;2023-07-29T13:55:27;2.92;;;2.10;;
16416;SDS011;8317;52.186;5.688;2023-07-29T13:57:54;1.50;;;1.38;;
16416;SDS011;8317;52.186;5.688;2023-07-29T14:00:21;3.97;;;2.03;;
16416;SDS011;8317;52.186;5.688;2023-07-29T14:02:48;2.35;;;1.95;;
16416;SDS011;8317;52.186;5.688;2023-07-29T14:05:15;3.08;;;2.17;;
16416;SDS011;8317;52.186;5.688;2023-07-29T14:07:42;11.07;;;6.35;;
16416;SDS011;8317;52.186;5.688;2023-07-29T14:10:09;8.10;;;4.15;;
16416;SDS011;8317;52.186;5.688;2023-07-29T14:12:37;3.50;;;3.05;;
16416;SDS011;8317;52.186;5.688;2023-07-29T14:15:04;4.55;;;3.05;;
16416;SDS011;8317;52.186;5.688;2023-07-29T14:17:32;7.32;;;3.55;;
16416;SDS011;8317;52.186;5.688;2023-07-29T14:19:59;3.08;;;2.78;;
16416;SDS011;8317;52.186;5.688;2023-07-29T14:22:27;3.67;;;3.33;;
16416;SDS011;8317;52.186;5.688;2023-07-29T14:24:54;3.08;;;2.78;;
16416;SDS011;8317;52.186;5.688;2023-07-29T14:27:21;3.42;;;2.60;;
16416;SDS011;8317;52.186;5.688;2023-07-29T14:29:49;3.88;;;2.53;;
16416;SDS011;8317;52.186;5.688;2023-07-29T14:32:16;6.68;;;2.83;;
16416;SDS011;8317;52.186;5.688;2023-07-29T14:34:43;2.83;;;2.47;;
16416;SDS011;8317;52.186;5.688;2023-07-29T14:37:10;5.47;;;2.78;;
16416;SDS011;8317;52.186;5.688;2023-07-29T14:39:37;2.50;;;2.30;;
16416;SDS011;8317;52.186;5.688;2023-07-29T14:42:04;2.38;;;2.08;;
16416;SDS011;8317;52.186;5.688;2023-07-29T14:44:31;2.75;;;2.45;;
16416;SDS011;8317;52.186;5.688;2023-07-29T14:47:00;2.85;;;2.13;;
16416;SDS011;8317;52.186;5.688;2023-07-29T14:49:26;3.63;;;2.80;;
16416;SDS011;8317;52.186;5.688;2023-07-29T14:51:53;7.03;;;2.40;;
16416;SDS011;8317;52.186;5.688;2023-07-29T14:54:20;3.53;;;2.22;;
16416;SDS011;8317;52.186;5.688;2023-07-29T14:56:47;4.32;;;3.17;;
16416;SDS011;8317;52.186;5.688;2023-07-29T14:59:14;3.72;;;3.35;;
16416;SDS011;8317;52.186;5.688;2023-07-29T15:01:41;2.60;;;2.40;;
16416;SDS011;8317;52.186;5.688;2023-07-29T15:04:09;2.20;;;2.00;;
16416;SDS011;8317;52.186;5.688;2023-07-29T15:06:36;5.07;;;2.05;;
16416;SDS011;8317;52.186;5.688;2023-07-29T15:09:04;1.77;;;1.55;;